createdAt,value
2022-11-10T00:00:09.934Z,99281.97
2022-11-10T00:05:39.977Z,99283.61
2022-11-10T00:11:01.536Z,99287.52
2022-11-10T00:16:29.682Z,99291.08
2022-11-10T00:21:38.105Z,99293.83
2022-11-10T00:26:46.228Z,99297.41
2022-11-10T00:31:53.480Z,99293.95
2022-11-10T00:37:01.153Z,99293.33
2022-11-10T00:42:09.074Z,99291.93
2022-11-10T00:47:16.120Z,99291.29
2022-11-10T00:52:23.408Z,99290.79
2022-11-10T00:59:45.263Z,99301.87
2022-11-10T01:04:52.732Z,99299.36
2022-11-10T01:10:00.226Z,99301.64
2022-11-10T01:15:08.785Z,99310.70
2022-11-10T01:20:16.241Z,99305.84
2022-11-10T01:25:24.497Z,99302.73
2022-11-10T01:30:32.243Z,99306.05
2022-11-10T01:35:39.451Z,99304.65
2022-11-10T01:40:47.019Z,99309.91
2022-11-10T01:45:56.497Z,99325.89
2022-11-10T01:51:08.490Z,99324.37
2022-11-10T01:56:17.614Z,99327.51
2022-11-10T02:01:25.721Z,99326.58
2022-11-10T02:06:35.645Z,99337.55
2022-11-10T02:11:44.397Z,99346.81
2022-11-10T02:16:51.596Z,99344.33
2022-11-10T02:22:00.278Z,99350.89
2022-11-10T02:27:07.274Z,99350.09
2022-11-10T02:32:14.679Z,99349.64
2022-11-10T02:37:21.764Z,99362.35
2022-11-10T02:42:27.635Z,99367.42
2022-11-10T02:47:34.713Z,99366.77
2022-11-10T02:52:40.519Z,99362.58
2022-11-10T02:57:47.558Z,99359.84
2022-11-10T03:02:58.789Z,99363.27
2022-11-10T03:18:07.479Z,99376.64
2022-11-10T03:23:14.994Z,99379.87
2022-11-10T03:28:23.021Z,99382.10
2022-11-10T03:33:30.310Z,99380.33
2022-11-10T03:38:37.819Z,99382.00
2022-11-10T03:43:43.392Z,99387.41
2022-11-10T03:48:53.636Z,99393.36
2022-11-10T03:54:01.397Z,99396.67
2022-11-10T03:59:09.387Z,99399.52
2022-11-10T04:04:30.519Z,99400.20
2022-11-10T04:09:37.709Z,99403.19
2022-11-10T04:15:02.427Z,99406.80
2022-11-10T04:20:12.142Z,99408.45
2022-11-10T04:25:19.227Z,99412.66
2022-11-10T04:30:26.688Z,99413.12
2022-11-10T04:35:34.205Z,99407.54
2022-11-10T04:40:39.919Z,99421.27
2022-11-10T04:45:49.823Z,99419.83
2022-11-10T04:50:57.535Z,99415.15
2022-11-10T04:56:04.640Z,99413.23
2022-11-10T05:01:14.094Z,99421.27
2022-11-10T05:06:21.095Z,99432.13
2022-11-10T05:11:28.695Z,99441.86
2022-11-10T05:16:35.902Z,99450.39
2022-11-10T05:21:43.085Z,99455.17
2022-11-10T05:26:48.511Z,99452.77
2022-11-10T05:31:55.763Z,99455.68
2022-11-10T05:37:03.318Z,99473.32
2022-11-10T05:42:10.555Z,99474.45
2022-11-10T05:47:17.917Z,99480.48
2022-11-10T05:52:25.290Z,99484.94
2022-11-10T05:57:32.807Z,99489.70
2022-11-10T06:02:40.476Z,99500.58
2022-11-10T06:07:47.580Z,99507.78
2022-11-10T06:12:55.241Z,99518.25
2022-11-10T06:18:02.420Z,99522.95
2022-11-10T06:23:08.568Z,99537.42
2022-11-10T06:28:15.938Z,99549.29
2022-11-10T06:33:23.676Z,99553.86
2022-11-10T06:38:31.199Z,99569.25
2022-11-10T06:43:38.058Z,99582.12
2022-11-10T06:48:45.295Z,99588.59
2022-11-10T06:59:31.217Z,99608.48
2022-11-10T07:04:38.350Z,99611.42
2022-11-10T07:09:43.789Z,99621.44
2022-11-10T07:14:50.667Z,99624.18
2022-11-10T07:19:57.839Z,99631.95
2022-11-10T07:25:05.679Z,99639.95
2022-11-10T07:30:15.041Z,99639.30
2022-11-10T07:35:22.335Z,99644.83
2022-11-10T07:40:30.585Z,99649.75
2022-11-10T07:45:37.549Z,99651.88
2022-11-10T07:50:44.864Z,99661.19
2022-11-10T07:55:52.532Z,99663.91
2022-11-10T08:01:00.275Z,99663.27
2022-11-10T08:06:08.757Z,99677.48
2022-11-10T08:11:15.909Z,99683.64
2022-11-10T08:16:23.012Z,99687.58
2022-11-10T08:21:30.367Z,99694.05
2022-11-10T08:26:38.436Z,99698.76
2022-11-10T08:31:46.356Z,99703.64
2022-11-10T08:36:54.390Z,99708.39
2022-11-10T08:42:01.893Z,99722.54
2022-11-10T08:47:09.214Z,99726.05
2022-11-10T08:52:16.160Z,99730.34
2022-11-10T08:57:23.412Z,99738.63
2022-11-10T09:02:30.766Z,99738.23
2022-11-10T09:07:46.033Z,99763.02
2022-11-10T09:12:53.063Z,99774.19
2022-11-10T09:18:03.017Z,99778.89
2022-11-10T09:23:11.699Z,99780.44
2022-11-10T09:28:20.308Z,99788.83
2022-11-10T09:33:27.709Z,99790.95
2022-11-10T09:38:35.569Z,99784.64
2022-11-10T09:43:46.970Z,99786.00
2022-11-10T09:48:57.624Z,99790.42
2022-11-10T09:54:08.183Z,99794.72
2022-11-10T09:59:23.679Z,99797.02
2022-11-10T10:04:51.675Z,99803.76
2022-11-10T10:10:05.563Z,99811.16
2022-11-10T10:15:25.496Z,99817.39
2022-11-10T10:20:43.659Z,99823.19
2022-11-10T10:25:53.640Z,99833.09
2022-11-10T10:31:13.679Z,99837.81
2022-11-10T10:36:24.734Z,99843.77
2022-11-10T10:41:34.822Z,99845.70
2022-11-10T10:46:50.259Z,99849.89
2022-11-10T10:52:08.339Z,99855.62
2022-11-10T10:57:25.751Z,99851.02
2022-11-10T11:02:34.154Z,99846.48
2022-11-10T11:07:41.508Z,99849.61
2022-11-10T11:12:48.602Z,99863.96
2022-11-10T11:18:00.214Z,99867.00
2022-11-10T11:23:15.029Z,99867.20
2022-11-10T11:28:30.629Z,99867.39
2022-11-10T11:33:43.564Z,99866.73
2022-11-10T11:38:59.945Z,99869.34
2022-11-10T11:44:28.765Z,99870.88
2022-11-10T11:50:08.912Z,99881.74
2022-11-10T11:55:31.384Z,99892.79
2022-11-10T12:00:52.409Z,99895.14
2022-11-10T12:06:15.740Z,99897.15
2022-11-10T12:11:32.867Z,99898.55
2022-11-10T12:16:43.428Z,99896.66
2022-11-10T12:21:55.816Z,99900.62
2022-11-10T12:27:10.483Z,99907.48
2022-11-10T12:32:23.760Z,99912.84
2022-11-10T12:37:36.565Z,99914.84
2022-11-10T12:42:46.107Z,99912.98
2022-11-10T12:47:54.568Z,99924.44
2022-11-10T12:53:04.746Z,99926.53
2022-11-10T12:58:15.185Z,99928.39
2022-11-10T13:03:32.035Z,99934.85
2022-11-10T13:08:50.123Z,99931.81
2022-11-10T13:14:00.833Z,99942.69
2022-11-10T13:19:09.645Z,99951.52
2022-11-10T13:24:28.671Z,99953.95
2022-11-10T13:29:54.994Z,99963.84
2022-11-10T13:35:32.917Z,99971.42
2022-11-10T13:40:41.244Z,99972.79
2022-11-10T13:45:49.318Z,99980.73
2022-11-10T13:51:08.552Z,99981.05
2022-11-10T13:56:26.096Z,99991.55
2022-11-10T14:01:34.172Z,99993.91
2022-11-10T14:06:49.572Z,99998.02
2022-11-10T14:12:02.149Z,99995.82
2022-11-10T14:17:20.295Z,100008.27
2022-11-10T14:22:33.527Z,100019.11
2022-11-10T14:27:42.022Z,100023.61
2022-11-10T14:32:59.167Z,100031.51
2022-11-10T14:38:05.702Z,100036.30
2022-11-10T14:48:59.823Z,100038.70
2022-11-10T14:54:07.605Z,100044.83
2022-11-10T14:59:16.458Z,100050.55
2022-11-10T15:04:31.155Z,100056.05
2022-11-10T15:09:38.730Z,100067.27
2022-11-10T15:14:48.769Z,100074.71
2022-11-10T15:19:59.075Z,100081.15
2022-11-10T15:25:19.181Z,100090.20
2022-11-10T15:30:27.649Z,100094.56
2022-11-10T15:35:34.832Z,100100.94
2022-11-10T15:40:48.713Z,100106.26
2022-11-10T15:45:59.966Z,100108.10
2022-11-10T15:51:10.102Z,100115.18
2022-11-10T15:56:19.666Z,100124.27
2022-11-10T16:01:27.640Z,100130.82
2022-11-10T16:06:34.957Z,100135.52
2022-11-10T16:11:44.637Z,100144.23
2022-11-10T16:16:52.169Z,100153.21
2022-11-10T16:22:00.049Z,100162.08
2022-11-10T16:27:12.214Z,100170.40
2022-11-10T16:32:19.421Z,100170.92
2022-11-10T16:37:26.451Z,100173.69
2022-11-10T16:42:33.775Z,100177.38
2022-11-10T16:47:41.053Z,100190.80
2022-11-10T16:52:48.408Z,100200.00
2022-11-10T16:57:55.501Z,100205.52
2022-11-10T17:03:07.616Z,100222.38
2022-11-10T17:08:22.125Z,100239.23
2022-11-10T17:13:30.215Z,100246.73
2022-11-10T17:18:40.994Z,100259.92
2022-11-10T17:23:48.394Z,100267.45
2022-11-10T17:28:55.866Z,100270.69
2022-11-10T17:34:03.420Z,100279.71
2022-11-10T17:39:13.858Z,100288.48
2022-11-10T17:44:21.807Z,100294.20
2022-11-10T17:49:28.893Z,100288.27
2022-11-10T17:54:36.424Z,100292.94
2022-11-10T17:59:43.641Z,100300.33
2022-11-10T18:04:50.919Z,100312.98
2022-11-10T18:09:58.031Z,100315.28
2022-11-10T18:15:05.545Z,100316.88
2022-11-10T18:20:15.177Z,100316.35
2022-11-10T18:25:22.733Z,100311.63
2022-11-10T18:30:34.941Z,100316.10
2022-11-10T18:35:43.713Z,100315.61
2022-11-10T18:40:51.177Z,100323.62
2022-11-10T18:45:58.866Z,100328.75
2022-11-10T18:51:09.367Z,100333.63
2022-11-10T18:56:16.749Z,100340.28
2022-11-10T19:01:24.450Z,100346.67
2022-11-10T19:06:31.883Z,100345.26
2022-11-10T19:11:39.101Z,100348.21
2022-11-10T19:16:46.720Z,100347.58
2022-11-10T19:21:54.965Z,100352.57
2022-11-10T19:27:02.127Z,100355.09
2022-11-10T19:32:09.301Z,100360.73
2022-11-10T19:37:16.498Z,100366.17
2022-11-10T19:42:23.505Z,100367.76
2022-11-10T19:47:30.915Z,100373.20
2022-11-10T19:52:36.618Z,100382.70
2022-11-10T19:57:44.427Z,100393.64
2022-11-10T20:02:51.669Z,100394.91
2022-11-10T20:08:15.906Z,100400.63
2022-11-10T20:13:23.479Z,100407.46
2022-11-10T20:18:30.882Z,100417.20
2022-11-10T20:23:38.458Z,100426.98
2022-11-10T20:28:46.688Z,100428.00
2022-11-10T20:33:54.930Z,100429.11
2022-11-10T20:39:02.245Z,100443.98
2022-11-10T20:44:09.704Z,100447.77
2022-11-10T20:49:16.885Z,100453.63
2022-11-10T20:54:22.302Z,100461.11
2022-11-10T20:59:30.224Z,100455.87
2022-11-10T21:04:42.900Z,100441.63
2022-11-10T21:09:50.701Z,100445.44
2022-11-10T21:14:58.570Z,100444.41
2022-11-10T21:20:06.212Z,100449.23
2022-11-10T21:25:14.283Z,100458.27
2022-11-10T21:30:24.294Z,100457.39
2022-11-10T21:35:36.818Z,100469.39
2022-11-10T21:40:45.403Z,100470.52
2022-11-10T21:45:57.970Z,100472.35
2022-11-10T21:51:06.092Z,100479.47
2022-11-10T21:56:14.222Z,100473.08
2022-11-10T22:01:21.572Z,100474.42
2022-11-10T22:06:49.072Z,100481.71
2022-11-10T22:12:13.845Z,100479.80
2022-11-10T22:17:37.676Z,100483.37
2022-11-10T22:22:45.548Z,100482.64
2022-11-10T22:27:53.092Z,100481.64
2022-11-10T22:33:21.524Z,100493.46
2022-11-10T22:38:29.017Z,100490.72
2022-11-10T22:43:53.711Z,100491.30
2022-11-10T22:49:01.635Z,100499.84
2022-11-10T22:54:12.941Z,100501.58
2022-11-10T22:59:21.081Z,100505.45
2022-11-10T23:04:28.660Z,100506.70
2022-11-10T23:09:36.145Z,100514.23
2022-11-10T23:14:43.028Z,100516.37
2022-11-10T23:19:50.264Z,100514.36
2022-11-10T23:24:57.824Z,100510.87
2022-11-10T23:30:05.487Z,100511.91
2022-11-10T23:35:14.460Z,100513.98
2022-11-10T23:40:21.512Z,100515.09
2022-11-10T23:45:52.668Z,100518.74
2022-11-10T23:50:54.511Z,100528.77
2022-11-10T23:56:03.591Z,100531.64
